sensor_id;sensor_type;location;lat;lon;timestamp;pressure;altitude;pressure_sealevel;temperature;humidity
76611;BME280;65503;48.534;9.062;2023-03-01T00:02:03;97613.66;;;1.76;55.96
76611;BME280;65503;48.534;9.062;2023-03-01T00:04:30;97604.25;;;1.75;55.87
76611;BME280;65503;48.534;9.062;2023-03-01T00:06:57;97615.72;;;1.73;55.87
76611;BME280;65503;48.534;9.062;2023-03-01T00:09:24;97600.16;;;1.73;55.95
76611;BME280;65503;48.534;9.062;2023-03-01T00:11:50;97604.06;;;1.77;55.64
76611;BME280;65503;48.534;9.062;2023-03-01T00:14:16;97609.25;;;1.77;55.72
76611;BME280;65503;48.534;9.062;2023-03-01T00:16:44;97616.06;;;1.70;56.03
76611;BME280;65503;48.534;9.062;2023-03-01T00:19:13;97609.88;;;1.62;56.37
76611;BME280;65503;48.534;9.062;2023-03-01T00:21:41;97610.81;;;1.53;56.22
76611;BME280;65503;48.534;9.062;2023-03-01T00:24:08;97608.88;;;1.55;56.80
76611;BME280;65503;48.534;9.062;2023-03-01T00:26:35;97611.47;;;1.55;56.72
76611;BME280;65503;48.534;9.062;2023-03-01T00:29:02;97611.13;;;1.50;56.75
76611;BME280;65503;48.534;9.062;2023-03-01T00:31:31;97604.00;;;1.52;56.70
76611;BME280;65503;48.534;9.062;2023-03-01T00:34:00;97609.50;;;1.49;56.84
76611;BME280;65503;48.534;9.062;2023-03-01T00:36:30;97598.94;;;1.43;57.15
76611;BME280;65503;48.534;9.062;2023-03-01T00:38:57;97598.44;;;1.39;57.40
76611;BME280;65503;48.534;9.062;2023-03-01T00:41:24;97595.84;;;1.39;57.28
76611;BME280;65503;48.534;9.062;2023-03-01T00:43:52;97590.00;;;1.37;57.17
76611;BME280;65503;48.534;9.062;2023-03-01T00:46:22;97590.47;;;1.33;57.42
76611;BME280;65503;48.534;9.062;2023-03-01T00:48:49;97585.13;;;1.34;57.33
76611;BME280;65503;48.534;9.062;2023-03-01T00:51:18;97584.66;;;1.31;57.56
76611;BME280;65503;48.534;9.062;2023-03-01T00:53:46;97583.03;;;1.30;57.60
76611;BME280;65503;48.534;9.062;2023-03-01T00:56:14;97581.06;;;1.32;57.31
76611;BME280;65503;48.534;9.062;2023-03-01T00:58:41;97579.28;;;1.24;57.92
76611;BME280;65503;48.534;9.062;2023-03-01T01:01:13;97577.94;;;1.20;58.17
76611;BME280;65503;48.534;9.062;2023-03-01T01:03:45;97574.38;;;1.21;57.94
76611;BME280;65503;48.534;9.062;2023-03-01T01:06:17;97572.75;;;1.12;57.91
76611;BME280;65503;48.534;9.062;2023-03-01T01:08:44;97578.94;;;1.27;58.59
76611;BME280;65503;48.534;9.062;2023-03-01T01:11:11;97569.19;;;1.13;58.42
76611;BME280;65503;48.534;9.062;2023-03-01T01:13:39;97556.88;;;1.15;58.28
76611;BME280;65503;48.534;9.062;2023-03-01T01:16:06;97565.25;;;1.09;57.94
76611;BME280;65503;48.534;9.062;2023-03-01T01:18:33;97569.13;;;1.05;58.48
76611;BME280;65503;48.534;9.062;2023-03-01T01:21:09;97563.13;;;1.04;58.76
76611;BME280;65503;48.534;9.062;2023-03-01T01:23:37;97563.34;;;1.11;58.73
76611;BME280;65503;48.534;9.062;2023-03-01T01:26:05;97557.16;;;1.04;58.77
76611;BME280;65503;48.534;9.062;2023-03-01T01:28:32;97544.47;;;0.93;58.94
76611;BME280;65503;48.534;9.062;2023-03-01T01:30:58;97548.63;;;0.86;59.65
76611;BME280;65503;48.534;9.062;2023-03-01T01:33:26;97544.59;;;0.83;59.31
76611;BME280;65503;48.534;9.062;2023-03-01T01:35:53;97545.69;;;0.80;60.14
76611;BME280;65503;48.534;9.062;2023-03-01T01:38:19;97546.22;;;0.84;59.18
76611;BME280;65503;48.534;9.062;2023-03-01T01:40:48;97553.44;;;0.72;60.09
76611;BME280;65503;48.534;9.062;2023-03-01T01:43:24;97546.38;;;0.82;59.56
76611;BME280;65503;48.534;9.062;2023-03-01T01:45:55;97547.84;;;0.85;59.64
76611;BME280;65503;48.534;9.062;2023-03-01T01:48:33;97549.34;;;0.96;59.49
76611;BME280;65503;48.534;9.062;2023-03-01T01:51:10;97546.47;;;1.07;59.23
76611;BME280;65503;48.534;9.062;2023-03-01T01:53:38;97552.06;;;1.28;58.03
76611;BME280;65503;48.534;9.062;2023-03-01T01:56:08;97556.34;;;1.45;57.93
76611;BME280;65503;48.534;9.062;2023-03-01T01:58:37;97550.19;;;1.54;57.50
76611;BME280;65503;48.534;9.062;2023-03-01T02:01:05;97537.44;;;1.77;57.04
76611;BME280;65503;48.534;9.062;2023-03-01T02:03:33;97544.09;;;1.80;56.73
76611;BME280;65503;48.534;9.062;2023-03-01T02:06:07;97546.03;;;1.94;55.85
76611;BME280;65503;48.534;9.062;2023-03-01T02:08:40;97542.47;;;1.95;56.16
76611;BME280;65503;48.534;9.062;2023-03-01T02:11:08;97534.88;;;2.10;55.57
76611;BME280;65503;48.534;9.062;2023-03-01T02:13:37;97529.88;;;2.16;55.61
76611;BME280;65503;48.534;9.062;2023-03-01T02:16:12;97521.41;;;2.14;55.69
76611;BME280;65503;48.534;9.062;2023-03-01T02:18:40;97518.78;;;2.22;55.42
76611;BME280;65503;48.534;9.062;2023-03-01T02:21:37;97515.22;;;2.23;55.55
76611;BME280;65503;48.534;9.062;2023-03-01T02:24:31;97517.19;;;2.37;55.19
76611;BME280;65503;48.534;9.062;2023-03-01T02:27:00;97513.63;;;2.38;54.91
76611;BME280;65503;48.534;9.062;2023-03-01T02:29:28;97506.44;;;2.40;54.50
76611;BME280;65503;48.534;9.062;2023-03-01T02:31:56;97506.41;;;2.57;54.97
76611;BME280;65503;48.534;9.062;2023-03-01T02:34:24;97508.06;;;2.49;54.42
76611;BME280;65503;48.534;9.062;2023-03-01T02:36:56;97511.81;;;2.47;54.29
76611;BME280;65503;48.534;9.062;2023-03-01T02:39:30;97506.09;;;2.52;54.63
76611;BME280;65503;48.534;9.062;2023-03-01T02:41:57;97504.81;;;2.47;54.70
76611;BME280;65503;48.534;9.062;2023-03-01T02:44:25;97501.56;;;2.54;54.39
76611;BME280;65503;48.534;9.062;2023-03-01T02:46:54;97491.19;;;2.54;54.55
76611;BME280;65503;48.534;9.062;2023-03-01T02:49:27;97485.00;;;2.55;54.37
76611;BME280;65503;48.534;9.062;2023-03-01T02:52:22;97491.19;;;2.62;54.33
76611;BME280;65503;48.534;9.062;2023-03-01T02:54:54;97486.81;;;2.54;54.77
76611;BME280;65503;48.534;9.062;2023-03-01T02:57:23;97494.09;;;2.59;54.40
76611;BME280;65503;48.534;9.062;2023-03-01T02:59:50;97479.50;;;2.49;54.77
76611;BME280;65503;48.534;9.062;2023-03-01T03:02:24;97480.78;;;2.54;54.84
76611;BME280;65503;48.534;9.062;2023-03-01T03:05:07;97481.44;;;2.56;54.68
76611;BME280;65503;48.534;9.062;2023-03-01T03:07:37;97483.03;;;2.57;54.06
76611;BME280;65503;48.534;9.062;2023-03-01T03:10:06;97476.56;;;2.61;53.82
76611;BME280;65503;48.534;9.062;2023-03-01T03:12:33;97472.50;;;2.58;54.18
76611;BME280;65503;48.534;9.062;2023-03-01T03:15:00;97472.34;;;2.60;54.21
76611;BME280;65503;48.534;9.062;2023-03-01T03:17:26;97464.75;;;2.50;54.85
76611;BME280;65503;48.534;9.062;2023-03-01T03:19:53;97466.38;;;2.43;54.93
76611;BME280;65503;48.534;9.062;2023-03-01T03:22:19;97468.16;;;2.51;54.29
76611;BME280;65503;48.534;9.062;2023-03-01T03:24:46;97474.94;;;2.52;54.28
76611;BME280;65503;48.534;9.062;2023-03-01T03:27:12;97464.84;;;2.57;54.81
76611;BME280;65503;48.534;9.062;2023-03-01T03:29:38;97470.41;;;2.54;54.82
76611;BME280;65503;48.534;9.062;2023-03-01T03:32:05;97466.53;;;2.49;54.84
76611;BME280;65503;48.534;9.062;2023-03-01T03:34:31;97465.22;;;2.54;54.31
76611;BME280;65503;48.534;9.062;2023-03-01T03:36:58;97458.88;;;2.56;54.46
76611;BME280;65503;48.534;9.062;2023-03-01T03:39:26;97457.72;;;2.59;54.94
76611;BME280;65503;48.534;9.062;2023-03-01T03:41:53;97456.09;;;2.58;54.60
76611;BME280;65503;48.534;9.062;2023-03-01T03:44:20;97459.66;;;2.57;54.42
76611;BME280;65503;48.534;9.062;2023-03-01T03:46:47;97456.28;;;2.56;54.51
76611;BME280;65503;48.534;9.062;2023-03-01T03:49:13;97458.06;;;2.56;54.58
76611;BME280;65503;48.534;9.062;2023-03-01T03:51:40;97447.34;;;2.59;55.15
76611;BME280;65503;48.534;9.062;2023-03-01T03:54:06;97458.06;;;2.56;54.40
76611;BME280;65503;48.534;9.062;2023-03-01T03:56:33;97452.56;;;2.51;54.74
76611;BME280;65503;48.534;9.062;2023-03-01T03:58:59;97455.78;;;2.61;54.60
76611;BME280;65503;48.534;9.062;2023-03-01T04:01:26;97450.91;;;2.58;54.65
76611;BME280;65503;48.534;9.062;2023-03-01T04:03:53;97448.50;;;2.56;54.85
76611;BME280;65503;48.534;9.062;2023-03-01T04:06:20;97445.72;;;2.58;54.58
76611;BME280;65503;48.534;9.062;2023-03-01T04:08:47;97441.97;;;2.60;54.59
76611;BME280;65503;48.534;9.062;2023-03-01T04:11:17;97444.44;;;2.54;55.27
76611;BME280;65503;48.534;9.062;2023-03-01T04:13:54;97447.19;;;2.52;55.12
76611;BME280;65503;48.534;9.062;2023-03-01T04:16:21;97439.91;;;2.56;54.61
76611;BME280;65503;48.534;9.062;2023-03-01T04:18:47;97435.63;;;2.63;54.50
76611;BME280;65503;48.534;9.062;2023-03-01T04:21:14;97441.81;;;2.62;54.56
76611;BME280;65503;48.534;9.062;2023-03-01T04:23:41;97442.50;;;2.56;54.33
76611;BME280;65503;48.534;9.062;2023-03-01T04:26:07;97442.13;;;2.59;54.78
76611;BME280;65503;48.534;9.062;2023-03-01T04:28:37;97439.91;;;2.47;54.85
76611;BME280;65503;48.534;9.062;2023-03-01T04:31:06;97438.28;;;2.46;55.57
76611;BME280;65503;48.534;9.062;2023-03-01T04:33:44;97440.50;;;2.58;54.97
76611;BME280;65503;48.534;9.062;2023-03-01T04:36:12;97428.84;;;2.62;55.35
76611;BME280;65503;48.534;9.062;2023-03-01T04:38:40;97432.09;;;2.56;55.15
76611;BME280;65503;48.534;9.062;2023-03-01T04:41:09;97425.41;;;2.61;54.75
76611;BME280;65503;48.534;9.062;2023-03-01T04:43:36;97430.72;;;2.68;54.74
76611;BME280;65503;48.534;9.062;2023-03-01T04:46:05;97428.03;;;2.53;54.94
76611;BME280;65503;48.534;9.062;2023-03-01T04:48:33;97426.91;;;2.56;55.25
76611;BME280;65503;48.534;9.062;2023-03-01T04:50:59;97422.38;;;2.41;55.71
76611;BME280;65503;48.534;9.062;2023-03-01T04:53:28;97417.84;;;2.43;55.75
76611;BME280;65503;48.534;9.062;2023-03-01T04:55:55;97419.44;;;2.53;55.57
76611;BME280;65503;48.534;9.062;2023-03-01T04:58:26;97426.34;;;2.68;55.05
76611;BME280;65503;48.534;9.062;2023-03-01T05:00:54;97421.03;;;2.62;54.84
76611;BME280;65503;48.534;9.062;2023-03-01T05:03:21;97418.41;;;2.70;55.18
76611;BME280;65503;48.534;9.062;2023-03-01T05:05:49;97413.06;;;2.63;54.98
76611;BME280;65503;48.534;9.062;2023-03-01T05:08:16;97418.75;;;2.67;55.07
76611;BME280;65503;48.534;9.062;2023-03-01T05:10:51;97418.06;;;2.73;55.21
76611;BME280;65503;48.534;9.062;2023-03-01T05:13:19;97420.03;;;2.71;54.88
76611;BME280;65503;48.534;9.062;2023-03-01T05:18:26;97412.53;;;2.76;54.98
76611;BME280;65503;48.534;9.062;2023-03-01T05:21:04;97420.31;;;2.76;55.30
76611;BME280;65503;48.534;9.062;2023-03-01T05:23:32;97412.53;;;2.76;54.71
76611;BME280;65503;48.534;9.062;2023-03-01T05:26:00;97416.09;;;2.75;54.75
76611;BME280;65503;48.534;9.062;2023-03-01T05:28:27;97418.69;;;2.75;55.30
76611;BME280;65503;48.534;9.062;2023-03-01T05:30:54;97416.44;;;2.72;55.28
76611;BME280;65503;48.534;9.062;2023-03-01T05:33:23;97415.16;;;2.68;55.60
76611;BME280;65503;48.534;9.062;2023-03-01T05:35:50;97412.31;;;2.85;54.54
76611;BME280;65503;48.534;9.062;2023-03-01T05:38:18;97422.25;;;2.82;54.59
76611;BME280;65503;48.534;9.062;2023-03-01T05:40:46;97411.56;;;2.77;54.77
76611;BME280;65503;48.534;9.062;2023-03-01T05:43:15;97417.13;;;2.66;55.54
76611;BME280;65503;48.534;9.062;2023-03-01T05:45:42;97413.50;;;2.75;55.03
76611;BME280;65503;48.534;9.062;2023-03-01T05:48:10;97410.91;;;2.75;54.66
76611;BME280;65503;48.534;9.062;2023-03-01T05:50:40;97412.53;;;2.76;55.35
76611;BME280;65503;48.534;9.062;2023-03-01T05:53:17;97414.97;;;2.77;55.26
76611;BME280;65503;48.534;9.062;2023-03-01T05:55:45;97409.41;;;2.80;54.87
76611;BME280;65503;48.534;9.062;2023-03-01T05:58:18;97413.13;;;2.86;55.00
76611;BME280;65503;48.534;9.062;2023-03-01T06:00:47;97410.56;;;2.78;54.80
76611;BME280;65503;48.534;9.062;2023-03-01T06:03:16;97408.13;;;2.76;55.09
76611;BME280;65503;48.534;9.062;2023-03-01T06:05:44;97410.91;;;2.75;55.29
76611;BME280;65503;48.534;9.062;2023-03-01T06:08:11;97405.69;;;2.75;55.52
76611;BME280;65503;48.534;9.062;2023-03-01T06:10:38;97406.66;;;2.82;55.24
76611;BME280;65503;48.534;9.062;2023-03-01T06:13:05;97411.50;;;2.85;54.87
76611;BME280;65503;48.534;9.062;2023-03-01T06:15:31;97406.94;;;2.87;54.61
76611;BME280;65503;48.534;9.062;2023-03-01T06:17:58;97410.53;;;2.86;55.14
76611;BME280;65503;48.534;9.062;2023-03-01T06:20:27;97400.78;;;2.88;54.60
76611;BME280;65503;48.534;9.062;2023-03-01T06:22:54;97402.88;;;2.92;54.54
76611;BME280;65503;48.534;9.062;2023-03-01T06:25:22;97391.66;;;2.92;55.19
76611;BME280;65503;48.534;9.062;2023-03-01T06:27:50;97398.31;;;2.95;55.05
76611;BME280;65503;48.534;9.062;2023-03-01T06:30:20;97398.47;;;2.93;54.48
76611;BME280;65503;48.534;9.062;2023-03-01T06:32:47;97412.28;;;2.94;54.50
76611;BME280;65503;48.534;9.062;2023-03-01T06:35:15;97410.50;;;2.94;54.80
76611;BME280;65503;48.534;9.062;2023-03-01T06:37:45;97404.94;;;2.97;54.95
76611;BME280;65503;48.534;9.062;2023-03-01T06:40:12;97410.53;;;3.17;54.43
76611;BME280;65503;48.534;9.062;2023-03-01T06:42:43;97415.97;;;3.07;54.13
76611;BME280;65503;48.534;9.062;2023-03-01T06:45:10;97408.44;;;3.12;53.79
76611;BME280;65503;48.534;9.062;2023-03-01T06:47:37;97411.44;;;3.01;53.65
76611;BME280;65503;48.534;9.062;2023-03-01T06:50:03;97399.50;;;2.84;55.10
76611;BME280;65503;48.534;9.062;2023-03-01T06:52:30;97404.06;;;2.82;54.98
76611;BME280;65503;48.534;9.062;2023-03-01T06:54:57;97401.03;;;2.62;55.54
76611;BME280;65503;48.534;9.062;2023-03-01T06:57:23;97404.06;;;2.74;55.11
76611;BME280;65503;48.534;9.062;2023-03-01T06:59:49;97407.06;;;3.02;54.38
76611;BME280;65503;48.534;9.062;2023-03-01T07:02:16;97406.31;;;3.39;53.43
76611;BME280;65503;48.534;9.062;2023-03-01T07:04:42;97398.91;;;3.73;52.12
76611;BME280;65503;48.534;9.062;2023-03-01T07:07:09;97399.66;;;3.96;51.13
76611;BME280;65503;48.534;9.062;2023-03-01T07:09:36;97402.56;;;4.01;51.60
76611;BME280;65503;48.534;9.062;2023-03-01T07:12:03;97395.09;;;3.98;51.10
76611;BME280;65503;48.534;9.062;2023-03-01T07:14:29;97390.06;;;4.11;50.80
76611;BME280;65503;48.534;9.062;2023-03-01T07:16:56;97391.81;;;4.19;50.82
76611;BME280;65503;48.534;9.062;2023-03-01T07:19:22;97401.34;;;4.27;50.04
76611;BME280;65503;48.534;9.062;2023-03-01T07:21:49;97389.38;;;4.18;50.62
76611;BME280;65503;48.534;9.062;2023-03-01T07:24:15;97391.25;;;4.24;50.75
76611;BME280;65503;48.534;9.062;2023-03-01T07:26:42;97389.66;;;4.37;50.24
76611;BME280;65503;48.534;9.062;2023-03-01T07:29:09;97389.00;;;4.50;50.36
76611;BME280;65503;48.534;9.062;2023-03-01T07:31:36;97389.41;;;4.97;48.90
76611;BME280;65503;48.534;9.062;2023-03-01T07:34:03;97383.78;;;5.15;47.97
76611;BME280;65503;48.534;9.062;2023-03-01T07:36:29;97389.56;;;5.32;48.00
76611;BME280;65503;48.534;9.062;2023-03-01T07:38:56;97390.78;;;5.78;47.00
76611;BME280;65503;48.534;9.062;2023-03-01T07:41:24;97375.25;;;5.92;45.83
76611;BME280;65503;48.534;9.062;2023-03-01T07:43:51;97374.44;;;6.19;45.73
76611;BME280;65503;48.534;9.062;2023-03-01T07:46:17;97372.38;;;6.42;44.77
76611;BME280;65503;48.534;9.062;2023-03-01T07:48:45;97381.09;;;6.62;43.77
76611;BME280;65503;48.534;9.062;2023-03-01T07:51:12;97377.16;;;7.54;42.26
76611;BME280;65503;48.534;9.062;2023-03-01T07:53:39;97366.88;;;7.59;41.31
76611;BME280;65503;48.534;9.062;2023-03-01T07:56:08;97371.06;;;8.52;39.73
76611;BME280;65503;48.534;9.062;2023-03-01T07:58:35;97372.28;;;9.38;37.79
76611;BME280;65503;48.534;9.062;2023-03-01T08:01:08;97366.84;;;10.57;35.58
76611;BME280;65503;48.534;9.062;2023-03-01T08:03:36;97363.22;;;11.36;33.97
76611;BME280;65503;48.534;9.062;2023-03-01T08:06:04;97368.78;;;11.28;33.56
76611;BME280;65503;48.534;9.062;2023-03-01T08:08:31;97358.59;;;11.62;32.93
76611;BME280;65503;48.534;9.062;2023-03-01T08:10:59;97368.19;;;11.97;32.44
76611;BME280;65503;48.534;9.062;2023-03-01T08:13:27;97360.63;;;11.48;32.86
76611;BME280;65503;48.534;9.062;2023-03-01T08:15:54;97364.38;;;11.82;32.39
76611;BME280;65503;48.534;9.062;2023-03-01T08:18:20;97368.28;;;11.91;32.15
76611;BME280;65503;48.534;9.062;2023-03-01T08:20:47;97361.69;;;12.23;31.87
76611;BME280;65503;48.534;9.062;2023-03-01T08:23:14;97364.41;;;13.03;30.94
76611;BME280;65503;48.534;9.062;2023-03-01T08:25:40;97366.06;;;13.33;29.57
76611;BME280;65503;48.534;9.062;2023-03-01T08:28:07;97360.03;;;13.82;29.13
76611;BME280;65503;48.534;9.062;2023-03-01T08:30:34;97363.44;;;14.50;28.23
76611;BME280;65503;48.534;9.062;2023-03-01T08:33:01;97365.97;;;13.89;28.55
76611;BME280;65503;48.534;9.062;2023-03-01T08:35:27;97366.09;;;14.16;28.64
76611;BME280;65503;48.534;9.062;2023-03-01T08:37:54;97361.13;;;14.20;28.48
76611;BME280;65503;48.534;9.062;2023-03-01T08:40:21;97357.75;;;14.41;28.14
76611;BME280;65503;48.534;9.062;2023-03-01T08:42:47;97354.59;;;14.82;27.65
76611;BME280;65503;48.534;9.062;2023-03-01T08:45:13;97356.97;;;16.18;25.42
76611;BME280;65503;48.534;9.062;2023-03-01T08:47:44;97357.41;;;16.89;24.54
76611;BME280;65503;48.534;9.062;2023-03-01T08:50:14;97362.06;;;17.29;24.00
76611;BME280;65503;48.534;9.062;2023-03-01T08:52:41;97346.16;;;16.72;24.31
76611;BME280;65503;48.534;9.062;2023-03-01T08:55:10;97354.97;;;16.77;24.53
76611;BME280;65503;48.534;9.062;2023-03-01T08:57:36;97352.84;;;17.87;23.64
76611;BME280;65503;48.534;9.062;2023-03-01T09:00:03;97349.59;;;18.46;22.10
76611;BME280;65503;48.534;9.062;2023-03-01T09:02:34;97348.50;;;17.30;23.23
76611;BME280;65503;48.534;9.062;2023-03-01T09:05:01;97342.94;;;17.37;23.51
76611;BME280;65503;48.534;9.062;2023-03-01T09:07:27;97350.72;;;17.69;23.47
76611;BME280;65503;48.534;9.062;2023-03-01T09:09:56;97328.78;;;18.58;22.47
76611;BME280;65503;48.534;9.062;2023-03-01T09:12:23;97329.25;;;18.80;21.98
76611;BME280;65503;48.534;9.062;2023-03-01T09:14:51;97329.91;;;18.11;22.45
76611;BME280;65503;48.534;9.062;2023-03-01T09:17:17;97324.84;;;15.78;25.13
76611;BME280;65503;48.534;9.062;2023-03-01T09:19:43;97329.31;;;14.53;27.49
76611;BME280;65503;48.534;9.062;2023-03-01T09:22:10;97319.88;;;15.91;25.67
76611;BME280;65503;48.534;9.062;2023-03-01T09:24:37;97315.06;;;16.25;24.54
76611;BME280;65503;48.534;9.062;2023-03-01T09:27:03;97323.97;;;15.45;25.83
76611;BME280;65503;48.534;9.062;2023-03-01T09:29:31;97323.13;;;15.66;25.44
76611;BME280;65503;48.534;9.062;2023-03-01T09:31:57;97320.16;;;15.95;24.93
76611;BME280;65503;48.534;9.062;2023-03-01T09:34:24;97319.88;;;16.28;24.52
76611;BME280;65503;48.534;9.062;2023-03-01T09:36:51;97313.06;;;16.52;24.03
76611;BME280;65503;48.534;9.062;2023-03-01T09:39:18;97326.25;;;16.32;24.26
76611;BME280;65503;48.534;9.062;2023-03-01T09:42:00;97318.09;;;17.01;23.77
76611;BME280;65503;48.534;9.062;2023-03-01T09:44:36;97330.47;;;17.63;22.79
76611;BME280;65503;48.534;9.062;2023-03-01T09:47:04;97316.25;;;16.49;24.24
76611;BME280;65503;48.534;9.062;2023-03-01T09:49:33;97318.66;;;17.13;23.97
76611;BME280;65503;48.534;9.062;2023-03-01T09:52:25;97317.03;;;19.67;20.57
76611;BME280;65503;48.534;9.062;2023-03-01T09:54:56;97317.84;;;19.24;21.00
76611;BME280;65503;48.534;9.062;2023-03-01T09:57:36;97317.19;;;17.88;22.33
76611;BME280;65503;48.534;9.062;2023-03-01T10:02:52;97314.97;;;18.56;21.48
76611;BME280;65503;48.534;9.062;2023-03-01T10:05:43;97306.75;;;17.51;22.93
76611;BME280;65503;48.534;9.062;2023-03-01T10:10:53;97297.97;;;18.16;22.66
76611;BME280;65503;48.534;9.062;2023-03-01T10:13:25;97293.19;;;18.93;21.41
76611;BME280;65503;48.534;9.062;2023-03-01T10:15:57;97296.78;;;18.63;21.94
76611;BME280;65503;48.534;9.062;2023-03-01T10:18:29;97285.50;;;17.87;22.28
76611;BME280;65503;48.534;9.062;2023-03-01T10:20:59;97281.47;;;16.04;25.11
76611;BME280;65503;48.534;9.062;2023-03-01T10:23:29;97277.13;;;13.93;27.84
76611;BME280;65503;48.534;9.062;2023-03-01T10:28:57;97272.75;;;12.35;30.92
76611;BME280;65503;48.534;9.062;2023-03-01T10:31:28;97282.00;;;12.50;31.18
76611;BME280;65503;48.534;9.062;2023-03-01T10:36:41;97272.66;;;13.44;29.56
76611;BME280;65503;48.534;9.062;2023-03-01T10:39:17;97273.84;;;13.19;29.80
76611;BME280;65503;48.534;9.062;2023-03-01T10:42:05;97276.78;;;14.06;28.56
76611;BME280;65503;48.534;9.062;2023-03-01T10:44:38;97261.75;;;13.40;29.86
76611;BME280;65503;48.534;9.062;2023-03-01T10:47:16;97268.81;;;13.06;30.46
76611;BME280;65503;48.534;9.062;2023-03-01T10:50:21;97256.59;;;12.89;30.73
76611;BME280;65503;48.534;9.062;2023-03-01T10:53:04;97263.09;;;12.81;30.49
76611;BME280;65503;48.534;9.062;2023-03-01T10:55:34;97252.47;;;12.64;31.30
76611;BME280;65503;48.534;9.062;2023-03-01T10:58:20;97250.28;;;12.21;31.69
76611;BME280;65503;48.534;9.062;2023-03-01T11:00:59;97247.59;;;11.05;32.70
76611;BME280;65503;48.534;9.062;2023-03-01T11:03:29;97234.84;;;10.06;36.07
76611;BME280;65503;48.534;9.062;2023-03-01T11:08:45;97232.94;;;10.49;35.05
76611;BME280;65503;48.534;9.062;2023-03-01T11:11:31;97230.75;;;10.64;35.79
76611;BME280;65503;48.534;9.062;2023-03-01T11:14:05;97218.38;;;10.17;36.03
76611;BME280;65503;48.534;9.062;2023-03-01T11:17:15;97211.63;;;9.84;36.98
76611;BME280;65503;48.534;9.062;2023-03-01T11:19:42;97216.63;;;10.29;36.29
76611;BME280;65503;48.534;9.062;2023-03-01T11:22:23;97206.13;;;10.59;35.55
76611;BME280;65503;48.534;9.062;2023-03-01T11:24:51;97192.13;;;11.00;34.70
76611;BME280;65503;48.534;9.062;2023-03-01T11:27:38;97190.72;;;11.27;34.95
76611;BME280;65503;48.534;9.062;2023-03-01T11:30:15;97182.13;;;11.43;33.85
76611;BME280;65503;48.534;9.062;2023-03-01T11:35:46;97179.63;;;10.42;35.26
76611;BME280;65503;48.534;9.062;2023-03-01T11:38:16;97178.19;;;9.91;36.85
76611;BME280;65503;48.534;9.062;2023-03-01T11:40:47;97177.91;;;9.81;36.78
76611;BME280;65503;48.534;9.062;2023-03-01T11:49:03;97169.44;;;10.75;34.58
76611;BME280;65503;48.534;9.062;2023-03-01T11:51:49;97156.84;;;10.36;35.82
76611;BME280;65503;48.534;9.062;2023-03-01T11:54:33;97157.69;;;9.82;36.92
76611;BME280;65503;48.534;9.062;2023-03-01T12:03:20;97147.41;;;9.62;37.67
76611;BME280;65503;48.534;9.062;2023-03-01T12:08:47;97123.09;;;10.33;36.04
76611;BME280;65503;48.534;9.062;2023-03-01T12:19:15;97112.34;;;10.88;34.64
76611;BME280;65503;48.534;9.062;2023-03-01T12:22:21;97110.88;;;10.92;35.19
76611;BME280;65503;48.534;9.062;2023-03-01T12:25:05;97112.44;;;10.10;36.03
76611;BME280;65503;48.534;9.062;2023-03-01T12:28:02;97098.28;;;10.11;36.38
76611;BME280;65503;48.534;9.062;2023-03-01T12:30:51;97107.63;;;10.66;35.34
76611;BME280;65503;48.534;9.062;2023-03-01T12:38:46;97099.66;;;11.31;34.32
76611;BME280;65503;48.534;9.062;2023-03-01T12:41:36;97076.25;;;10.76;35.19
76611;BME280;65503;48.534;9.062;2023-03-01T12:44:23;97079.03;;;10.82;35.04
76611;BME280;65503;48.534;9.062;2023-03-01T12:49:55;97068.78;;;10.09;36.95
76611;BME280;65503;48.534;9.062;2023-03-01T12:52:21;97055.75;;;10.14;37.21
76611;BME280;65503;48.534;9.062;2023-03-01T12:54:51;97052.03;;;10.21;36.28
76611;BME280;65503;48.534;9.062;2023-03-01T12:57:40;97059.63;;;10.29;35.76
76611;BME280;65503;48.534;9.062;2023-03-01T13:00:26;97053.16;;;11.02;35.56
76611;BME280;65503;48.534;9.062;2023-03-01T13:03:02;97042.34;;;12.85;31.59
76611;BME280;65503;48.534;9.062;2023-03-01T13:05:40;97042.91;;;14.13;29.61
76611;BME280;65503;48.534;9.062;2023-03-01T13:08:16;97040.63;;;15.27;27.77
76611;BME280;65503;48.534;9.062;2023-03-01T13:10:52;97034.63;;;15.00;28.28
76611;BME280;65503;48.534;9.062;2023-03-01T13:13:26;97036.56;;;14.14;30.17
76611;BME280;65503;48.534;9.062;2023-03-01T13:15:54;97041.94;;;13.27;31.39
76611;BME280;65503;48.534;9.062;2023-03-01T13:20:54;97040.44;;;12.02;33.06
76611;BME280;65503;48.534;9.062;2023-03-01T13:31:10;97028.97;;;11.80;34.35
76611;BME280;65503;48.534;9.062;2023-03-01T13:33:48;97028.13;;;11.39;34.12
76611;BME280;65503;48.534;9.062;2023-03-01T13:49:43;97028.84;;;9.70;37.02
76611;BME280;65503;48.534;9.062;2023-03-01T13:52:32;97031.72;;;9.99;37.35
76611;BME280;65503;48.534;9.062;2023-03-01T13:57:43;97026.59;;;10.45;36.16
76611;BME280;65503;48.534;9.062;2023-03-01T14:03:14;97010.44;;;10.18;37.10
76611;BME280;65503;48.534;9.062;2023-03-01T14:05:44;97004.78;;;10.15;37.17
76611;BME280;65503;48.534;9.062;2023-03-01T14:08:38;97004.72;;;9.91;37.89
76611;BME280;65503;48.534;9.062;2023-03-01T14:13:54;97016.50;;;10.19;37.15
76611;BME280;65503;48.534;9.062;2023-03-01T14:16:32;97027.94;;;10.24;37.09
76611;BME280;65503;48.534;9.062;2023-03-01T14:19:19;97029.06;;;10.17;37.41
76611;BME280;65503;48.534;9.062;2023-03-01T14:22:24;97030.00;;;10.34;37.01
76611;BME280;65503;48.534;9.062;2023-03-01T14:25:05;97024.84;;;10.27;37.32
76611;BME280;65503;48.534;9.062;2023-03-01T14:27:39;97037.81;;;10.52;36.92
76611;BME280;65503;48.534;9.062;2023-03-01T14:30:21;97033.81;;;10.61;36.91
76611;BME280;65503;48.534;9.062;2023-03-01T14:32:58;97033.00;;;10.49;36.58
76611;BME280;65503;48.534;9.062;2023-03-01T14:35:27;97035.63;;;10.08;37.30
76611;BME280;65503;48.534;9.062;2023-03-01T14:37:54;97031.53;;;9.82;38.16
76611;BME280;65503;48.534;9.062;2023-03-01T14:40:33;97033.69;;;9.73;38.16
76611;BME280;65503;48.534;9.062;2023-03-01T14:43:09;97037.91;;;9.74;38.41
76611;BME280;65503;48.534;9.062;2023-03-01T14:45:36;97039.25;;;9.95;38.16
76611;BME280;65503;48.534;9.062;2023-03-01T14:48:04;97031.97;;;10.09;37.93
76611;BME280;65503;48.534;9.062;2023-03-01T14:50:34;97031.72;;;9.99;38.12